createdAt,value
2017-09-08T00:00:31.304Z,966.88
2017-09-08T00:01:31.200Z,966.85
2017-09-08T00:02:31.194Z,966.86
2017-09-08T00:03:31.189Z,966.76
2017-09-08T00:04:31.183Z,966.83
2017-09-08T00:05:31.178Z,966.83
2017-09-08T00:06:31.172Z,966.83
2017-09-08T00:07:31.169Z,966.86
2017-09-08T00:08:31.166Z,966.84
2017-09-08T00:09:31.156Z,966.85
2017-09-08T00:10:31.152Z,966.88
2017-09-08T00:11:31.146Z,966.83
2017-09-08T00:12:31.147Z,966.85
2017-09-08T00:13:31.136Z,966.88
2017-09-08T00:14:31.130Z,966.87
2017-09-08T00:15:31.125Z,966.85
2017-09-08T00:16:31.120Z,966.83
2017-09-08T00:17:31.116Z,966.84
2017-09-08T00:18:31.109Z,966.8
2017-09-08T00:19:31.104Z,966.8
2017-09-08T00:20:31.099Z,966.82
2017-09-08T00:21:31.095Z,966.81
2017-09-08T00:22:31.087Z,966.85
2017-09-08T00:23:31.084Z,966.86
2017-09-08T00:24:31.079Z,966.85
2017-09-08T00:25:31.072Z,966.9
2017-09-08T00:26:31.067Z,966.91
2017-09-08T00:27:31.063Z,966.9
2017-09-08T00:28:31.058Z,966.9
2017-09-08T00:29:31.051Z,966.9
2017-09-08T00:30:31.047Z,966.91
2017-09-08T00:31:31.042Z,966.88
2017-09-08T00:32:31.138Z,966.83
2017-09-08T00:33:31.032Z,966.83
2017-09-08T00:34:31.024Z,966.85
2017-09-08T00:35:31.020Z,966.8
2017-09-08T00:36:31.021Z,966.82
2017-09-08T00:37:31.011Z,966.8
2017-09-08T00:38:31.005Z,966.83
2017-09-08T00:39:30.999Z,966.85
2017-09-08T00:40:30.993Z,966.86
2017-09-08T00:41:31.089Z,966.85
2017-09-08T00:42:30.982Z,966.81
2017-09-08T00:43:30.978Z,966.79
2017-09-08T00:44:30.972Z,966.8
2017-09-08T00:45:30.966Z,966.79
2017-09-08T00:46:30.963Z,966.82
2017-09-08T00:47:30.956Z,966.79
2017-09-08T00:48:30.950Z,966.73
2017-09-08T00:49:30.946Z,966.71
2017-09-08T00:50:30.942Z,966.71
2017-09-08T00:51:30.936Z,966.63
2017-09-08T00:52:30.930Z,966.62
2017-09-08T00:53:30.924Z,966.61
2017-09-08T00:54:30.920Z,966.58
2017-09-08T00:55:30.913Z,966.55
2017-09-08T00:56:30.908Z,966.52
2017-09-08T00:57:30.903Z,966.51
2017-09-08T00:58:30.897Z,966.52
2017-09-08T00:59:30.895Z,966.5
2017-09-08T01:00:30.886Z,966.53
2017-09-08T01:01:30.882Z,966.48
2017-09-08T01:02:30.877Z,966.5
2017-09-08T01:03:30.870Z,966.48
2017-09-08T01:04:30.866Z,966.47
2017-09-08T01:05:30.861Z,966.45
2017-09-08T01:06:30.854Z,966.49
2017-09-08T01:07:30.949Z,966.42
2017-09-08T01:08:30.845Z,966.42
2017-09-08T01:09:30.846Z,966.4
2017-09-08T01:10:30.834Z,966.41
2017-09-08T01:11:30.928Z,966.36
2017-09-08T01:12:30.822Z,966.37
2017-09-08T01:13:30.816Z,966.38
2017-09-08T01:14:30.811Z,966.4
2017-09-08T01:15:30.806Z,966.37
2017-09-08T01:16:30.802Z,966.36
2017-09-08T01:17:30.795Z,966.39
2017-09-08T01:18:30.790Z,966.38
2017-09-08T01:19:30.786Z,966.43
2017-09-08T01:20:30.778Z,966.44
2017-09-08T01:21:30.773Z,966.44
2017-09-08T01:22:30.769Z,966.45
2017-09-08T01:23:30.764Z,966.45
2017-09-08T01:24:30.755Z,966.45
2017-09-08T01:25:30.752Z,966.47
2017-09-08T01:26:30.747Z,966.41
2017-09-08T01:27:30.743Z,966.47
2017-09-08T01:28:30.735Z,966.45
2017-09-08T01:29:30.735Z,966.44
2017-09-08T01:30:30.726Z,966.46
2017-09-08T01:31:30.719Z,966.41
2017-09-08T01:32:30.712Z,966.45
2017-09-08T01:33:30.708Z,966.44
2017-09-08T01:34:30.703Z,966.45
2017-09-08T01:35:30.797Z,966.5
2017-09-08T01:36:30.692Z,966.49
2017-09-08T01:37:30.687Z,966.49
2017-09-08T01:38:30.682Z,966.47
2017-09-08T01:39:30.676Z,966.48
2017-09-08T01:40:30.670Z,966.46
2017-09-08T01:41:30.664Z,966.46
2017-09-08T01:42:30.661Z,966.46
2017-09-08T01:43:30.653Z,966.48
2017-09-08T01:44:30.649Z,966.46
2017-09-08T01:45:30.648Z,966.46
2017-09-08T01:46:30.637Z,966.48
2017-09-08T01:47:30.632Z,966.46
2017-09-08T01:48:30.625Z,966.46
2017-09-08T01:49:30.621Z,966.49
2017-09-08T01:50:30.617Z,966.47
2017-09-08T01:51:30.611Z,966.45
2017-09-08T01:52:30.606Z,966.5
2017-09-08T01:53:30.598Z,966.47
2017-09-08T01:54:30.593Z,966.46
2017-09-08T01:55:30.588Z,966.45
2017-09-08T01:56:30.784Z,966.48
2017-09-08T01:57:30.577Z,966.47
2017-09-08T01:58:30.572Z,966.51
2017-09-08T01:59:30.566Z,966.5
2017-09-08T02:00:30.560Z,966.46
2017-09-08T02:01:30.555Z,966.47
2017-09-08T02:02:30.550Z,966.48
2017-09-08T02:03:30.545Z,966.47
2017-09-08T02:04:30.539Z,966.45
2017-09-08T02:05:30.534Z,966.47
2017-09-08T02:06:30.529Z,966.47
2017-09-08T02:07:30.524Z,966.43
2017-09-08T02:08:30.519Z,966.41
2017-09-08T02:09:30.513Z,966.38
2017-09-08T02:10:30.508Z,966.39
2017-09-08T02:11:30.500Z,966.36
2017-09-08T02:12:30.696Z,966.32
2017-09-08T02:13:30.490Z,966.28
2017-09-08T02:14:30.485Z,966.26
2017-09-08T02:15:30.478Z,966.26
2017-09-08T02:16:30.473Z,966.23
2017-09-08T02:17:30.468Z,966.2
2017-09-08T02:18:30.462Z,966.19
2017-09-08T02:19:30.456Z,966.17
2017-09-08T02:20:30.456Z,966.17
2017-09-08T02:21:30.448Z,966.16
2017-09-08T02:22:30.440Z,966.15
2017-09-08T02:23:30.435Z,966.16
2017-09-08T02:24:30.429Z,966.15
2017-09-08T02:25:30.426Z,966.17
2017-09-08T02:26:30.416Z,966.14
2017-09-08T02:27:30.414Z,966.16
2017-09-08T02:28:30.407Z,966.16
2017-09-08T02:29:30.402Z,966.19
2017-09-08T02:30:30.396Z,966.15
2017-09-08T02:31:30.391Z,966.19
2017-09-08T02:32:30.485Z,966.22
2017-09-08T02:33:30.379Z,966.23
2017-09-08T02:34:30.374Z,966.24
2017-09-08T02:35:30.369Z,966.21
2017-09-08T02:36:30.361Z,966.22
2017-09-08T02:37:30.356Z,966.22
2017-09-08T02:38:30.351Z,966.26
2017-09-08T02:39:30.347Z,966.23
2017-09-08T02:40:30.341Z,966.23
2017-09-08T02:41:30.335Z,966.23
2017-09-08T02:42:30.328Z,966.25
2017-09-08T02:43:30.324Z,966.21
2017-09-08T02:44:30.316Z,966.21
2017-09-08T02:45:30.311Z,966.21
2017-09-08T02:46:30.307Z,966.18
2017-09-08T02:47:30.302Z,966.2
2017-09-08T02:48:30.296Z,966.21
2017-09-08T02:49:30.290Z,966.16
2017-09-08T02:50:30.285Z,966.2
2017-09-08T02:51:30.280Z,966.23
2017-09-08T02:52:30.376Z,966.21
2017-09-08T02:53:30.268Z,966.21
2017-09-08T02:54:30.263Z,966.22
2017-09-08T02:55:30.256Z,966.2
2017-09-08T02:56:30.251Z,966.17
2017-09-08T02:57:30.245Z,966.15
2017-09-08T02:58:30.240Z,966.15
2017-09-08T02:59:30.233Z,966.14
2017-09-08T03:00:30.229Z,966.16
2017-09-08T03:01:30.223Z,966.17
2017-09-08T03:02:30.217Z,966.15
2017-09-08T03:03:30.213Z,966.14
2017-09-08T03:04:30.209Z,966.14
2017-09-08T03:05:30.201Z,966.18
2017-09-08T03:06:30.194Z,966.17
2017-09-08T03:07:30.189Z,966.14
2017-09-08T03:08:30.185Z,966.17
2017-09-08T03:09:30.180Z,966.17
2017-09-08T03:10:30.173Z,966.16
2017-09-08T03:11:30.166Z,966.12
2017-09-08T03:12:30.162Z,966.13
2017-09-08T03:13:30.156Z,966.11
2017-09-08T03:14:30.249Z,966.14
2017-09-08T03:15:30.145Z,966.1
2017-09-08T03:16:30.138Z,966.08
2017-09-08T03:17:30.133Z,966.05
2017-09-08T03:18:30.164Z,966.03
2017-09-08T03:19:30.122Z,966.03
2017-09-08T03:20:30.116Z,966.01
2017-09-08T03:21:30.110Z,965.97
2017-09-08T03:22:30.106Z,965.94
2017-09-08T03:23:30.098Z,965.95
2017-09-08T03:24:30.096Z,965.94
2017-09-08T03:25:30.088Z,965.87
2017-09-08T03:26:30.082Z,965.85
2017-09-08T03:27:30.077Z,965.87
2017-09-08T03:28:30.071Z,965.85
2017-09-08T03:29:30.065Z,965.85
2017-09-08T03:30:30.062Z,965.85
2017-09-08T03:31:30.059Z,965.85
2017-09-08T03:32:30.048Z,965.8
2017-09-08T03:33:30.044Z,965.82
2017-09-08T03:34:30.038Z,965.82
2017-09-08T03:35:30.033Z,965.77
2017-09-08T03:36:30.128Z,965.77
2017-09-08T03:37:30.021Z,965.8
2017-09-08T03:38:30.017Z,965.81
2017-09-08T03:39:30.010Z,965.8
2017-09-08T03:40:30.105Z,965.78
2017-09-08T03:41:29.998Z,965.78
2017-09-08T03:42:29.993Z,965.77
2017-09-08T03:43:29.990Z,965.78
2017-09-08T03:44:29.982Z,965.76
2017-09-08T03:45:29.976Z,965.78
2017-09-08T03:46:29.970Z,965.76
2017-09-08T03:47:29.964Z,965.73
2017-09-08T03:48:29.959Z,965.78
2017-09-08T03:49:29.953Z,965.73
2017-09-08T03:50:29.946Z,965.75
2017-09-08T03:51:29.942Z,965.74
2017-09-08T03:52:29.937Z,965.75
2017-09-08T03:53:29.934Z,965.72
2017-09-08T03:54:29.925Z,965.71
2017-09-08T03:55:29.918Z,965.68
2017-09-08T03:56:29.915Z,965.67
2017-09-08T03:57:29.907Z,965.68
2017-09-08T03:58:29.902Z,965.66
2017-09-08T03:59:29.897Z,965.67
2017-09-08T04:00:29.891Z,965.62
2017-09-08T04:01:29.885Z,965.65
2017-09-08T04:02:29.878Z,965.62
2017-09-08T04:03:29.874Z,965.62
2017-09-08T04:04:29.870Z,965.59
2017-09-08T04:05:29.861Z,965.54
2017-09-08T04:06:29.857Z,965.56
2017-09-08T04:07:29.851Z,965.61
2017-09-08T04:08:29.846Z,965.55
2017-09-08T04:09:29.840Z,965.58
2017-09-08T04:10:29.836Z,965.58
2017-09-08T04:11:29.830Z,965.58
2017-09-08T04:12:29.821Z,965.58
2017-09-08T04:13:29.817Z,965.58
2017-09-08T04:14:29.811Z,965.6
2017-09-08T04:15:29.807Z,965.61
2017-09-08T04:16:29.801Z,965.62
2017-09-08T04:17:29.795Z,965.63
2017-09-08T04:18:29.789Z,965.62
2017-09-08T04:19:29.782Z,965.6
2017-09-08T04:20:29.777Z,965.59
2017-09-08T04:21:29.771Z,965.57
2017-09-08T04:22:29.765Z,965.62
2017-09-08T04:23:29.761Z,965.59
2017-09-08T04:24:29.755Z,965.55
2017-09-08T04:25:29.748Z,965.57
2017-09-08T04:26:29.743Z,965.55
2017-09-08T04:27:29.737Z,965.54
2017-09-08T04:28:29.733Z,965.56
2017-09-08T04:29:29.726Z,965.58
2017-09-08T04:30:29.720Z,965.58
2017-09-08T04:31:29.714Z,965.5
2017-09-08T04:32:29.709Z,965.53
2017-09-08T04:33:29.702Z,965.56
2017-09-08T04:34:29.699Z,965.53
2017-09-08T04:35:29.700Z,965.54
2017-09-08T04:36:29.687Z,965.56
2017-09-08T04:37:29.680Z,965.57
2017-09-08T04:38:29.674Z,965.59
2017-09-08T04:39:29.668Z,965.58
2017-09-08T04:40:29.664Z,965.57
2017-09-08T04:41:29.656Z,965.54
2017-09-08T04:42:29.653Z,965.57
2017-09-08T04:43:29.646Z,965.6
2017-09-08T04:44:29.640Z,965.56
2017-09-08T04:45:29.634Z,965.56
2017-09-08T04:46:29.628Z,965.56
2017-09-08T04:47:29.622Z,965.56
2017-09-08T04:48:29.617Z,965.56
2017-09-08T04:49:29.611Z,965.53
2017-09-08T04:50:29.605Z,965.55
2017-09-08T04:51:29.600Z,965.52
2017-09-08T04:52:29.593Z,965.54
2017-09-08T04:53:29.723Z,965.5
2017-09-08T04:54:29.584Z,965.56
2017-09-08T04:55:29.577Z,965.59
2017-09-08T04:56:29.570Z,965.6
2017-09-08T04:57:29.565Z,965.63
2017-09-08T04:58:29.561Z,965.61
2017-09-08T04:59:29.554Z,965.6
2017-09-08T05:00:29.548Z,965.57
2017-09-08T05:01:29.543Z,965.58
2017-09-08T05:02:29.537Z,965.6
2017-09-08T05:03:29.530Z,965.57
2017-09-08T05:04:29.625Z,965.59
2017-09-08T05:05:29.519Z,965.55
2017-09-08T05:06:29.514Z,965.64
2017-09-08T05:07:29.508Z,965.62
2017-09-08T05:08:29.502Z,965.59
2017-09-08T05:09:29.596Z,965.59
2017-09-08T05:10:29.489Z,965.64
2017-09-08T05:11:29.486Z,965.66
2017-09-08T05:12:29.479Z,965.68
2017-09-08T05:13:29.473Z,965.66
2017-09-08T05:14:29.467Z,965.65
2017-09-08T05:15:29.462Z,965.66
2017-09-08T05:16:29.457Z,965.66
2017-09-08T05:17:29.451Z,965.66
2017-09-08T05:18:29.446Z,965.7
2017-09-08T05:19:29.439Z,965.66
2017-09-08T05:20:29.533Z,965.74
2017-09-08T05:21:29.428Z,965.69
2017-09-08T05:22:29.422Z,965.69
2017-09-08T05:23:29.416Z,965.67
2017-09-08T05:24:29.511Z,965.65
2017-09-08T05:25:29.404Z,965.63
2017-09-08T05:26:29.399Z,965.6
2017-09-08T05:27:29.394Z,965.62
2017-09-08T05:28:29.388Z,965.63
2017-09-08T05:29:29.381Z,965.57
2017-09-08T05:30:29.376Z,965.64
2017-09-08T05:31:29.370Z,965.61
2017-09-08T05:32:29.363Z,965.6
2017-09-08T05:33:29.358Z,965.56
2017-09-08T05:34:29.353Z,965.51
2017-09-08T05:35:29.347Z,965.54
2017-09-08T05:36:29.341Z,965.53
2017-09-08T05:37:29.334Z,965.49
2017-09-08T05:38:29.330Z,965.51
2017-09-08T05:39:29.325Z,965.53
2017-09-08T05:40:29.318Z,965.54
2017-09-08T05:41:29.311Z,965.53
2017-09-08T05:42:29.406Z,965.56
2017-09-08T05:43:29.301Z,965.52
2017-09-08T05:44:29.296Z,965.52
2017-09-08T05:45:29.289Z,965.56
2017-09-08T05:46:29.383Z,965.53
2017-09-08T05:47:29.278Z,965.53
2017-09-08T05:48:29.272Z,965.54
2017-09-08T05:49:29.266Z,965.55
2017-09-08T05:50:29.261Z,965.53
2017-09-08T05:51:29.261Z,965.46
2017-09-08T05:52:29.249Z,965.51
2017-09-08T05:53:29.243Z,965.55
2017-09-08T05:54:29.237Z,965.55
2017-09-08T05:55:29.332Z,965.51
2017-09-08T05:56:29.226Z,965.52
2017-09-08T05:57:29.222Z,965.54
2017-09-08T05:58:29.214Z,965.57
2017-09-08T05:59:29.208Z,965.54
2017-09-08T06:00:29.202Z,965.53
2017-09-08T06:01:29.297Z,965.54
2017-09-08T06:02:29.192Z,965.55
2017-09-08T06:03:29.185Z,965.53
2017-09-08T06:04:29.178Z,965.51
2017-09-08T06:05:29.173Z,965.53
2017-09-08T06:06:29.167Z,965.53
2017-09-08T06:07:29.161Z,965.54
2017-09-08T06:08:29.157Z,965.54
2017-09-08T06:09:29.150Z,965.56
2017-09-08T06:10:29.145Z,965.57
2017-09-08T06:11:29.140Z,965.59
2017-09-08T06:12:29.134Z,965.53
2017-09-08T06:13:29.132Z,965.57
2017-09-08T06:14:29.222Z,965.58
2017-09-08T06:15:29.116Z,965.59
2017-09-08T06:16:29.109Z,965.55
2017-09-08T06:17:29.105Z,965.58
2017-09-08T06:18:29.098Z,965.59
2017-09-08T06:19:29.095Z,965.55
2017-09-08T06:20:29.087Z,965.58
2017-09-08T06:21:29.082Z,965.54
2017-09-08T06:22:29.075Z,965.56
2017-09-08T06:23:29.072Z,965.59
2017-09-08T06:24:29.065Z,965.58
2017-09-08T06:25:29.057Z,965.61
2017-09-08T06:26:29.053Z,965.6
2017-09-08T06:27:29.047Z,965.61
2017-09-08T06:28:29.040Z,965.63
2017-09-08T06:29:29.036Z,965.63
2017-09-08T06:30:29.030Z,965.61
2017-09-08T06:31:29.024Z,965.58
2017-09-08T06:32:29.018Z,965.55
2017-09-08T06:33:29.012Z,965.6
2017-09-08T06:34:29.007Z,965.59
2017-09-08T06:35:29.000Z,965.61
2017-09-08T06:36:28.995Z,965.64
2017-09-08T06:37:28.990Z,965.57
2017-09-08T06:38:28.983Z,965.58
2017-09-08T06:39:28.978Z,965.55
2017-09-08T06:40:28.972Z,965.58
2017-09-08T06:41:28.967Z,965.55
2017-09-08T06:42:28.959Z,965.57
2017-09-08T06:43:28.955Z,965.63
2017-09-08T06:44:29.050Z,965.61
2017-09-08T06:45:28.944Z,965.62
2017-09-08T06:46:28.938Z,965.64
2017-09-08T06:47:28.934Z,965.66
2017-09-08T06:48:29.027Z,965.67
2017-09-08T06:49:28.920Z,965.67
2017-09-08T06:50:28.920Z,965.69
2017-09-08T06:51:29.010Z,965.66
2017-09-08T06:52:28.905Z,965.68
2017-09-08T06:53:28.898Z,965.7
2017-09-08T06:54:28.893Z,965.69
2017-09-08T06:55:28.889Z,965.7
2017-09-08T06:56:28.879Z,965.69
2017-09-08T06:57:28.976Z,965.69
2017-09-08T06:58:28.970Z,965.69
2017-09-08T06:59:28.865Z,965.73
2017-09-08T07:00:28.858Z,965.7
2017-09-08T07:01:28.852Z,965.67
2017-09-08T07:02:28.848Z,965.71
2017-09-08T07:03:28.840Z,965.73
2017-09-08T07:04:28.834Z,965.71
2017-09-08T07:05:28.929Z,965.7
2017-09-08T07:06:28.823Z,965.66
2017-09-08T07:07:28.816Z,965.68
2017-09-08T07:08:28.812Z,965.69
2017-09-08T07:09:28.806Z,965.69
2017-09-08T07:10:28.801Z,965.67
2017-09-08T07:11:28.795Z,965.68
2017-09-08T07:12:28.789Z,965.67
2017-09-08T07:13:28.783Z,965.7
2017-09-08T07:14:28.779Z,965.66
2017-09-08T07:15:28.772Z,965.7
2017-09-08T07:16:28.767Z,965.67
2017-09-08T07:17:28.861Z,965.66
2017-09-08T07:18:28.853Z,965.65
2017-09-08T07:19:28.749Z,965.65
2017-09-08T07:20:28.747Z,965.64
2017-09-08T07:21:28.739Z,965.61
2017-09-08T07:22:28.734Z,965.6
2017-09-08T07:23:28.826Z,965.59
2017-09-08T07:24:28.721Z,965.57
2017-09-08T07:25:28.715Z,965.54
2017-09-08T07:26:28.710Z,965.58
2017-09-08T07:27:28.804Z,965.6
2017-09-08T07:28:28.698Z,965.56
2017-09-08T07:29:28.693Z,965.6
2017-09-08T07:30:28.688Z,965.57
2017-09-08T07:31:28.681Z,965.57
2017-09-08T07:32:28.676Z,965.61
2017-09-08T07:33:28.669Z,965.59
2017-09-08T07:34:28.666Z,965.59
2017-09-08T07:35:28.658Z,965.56
2017-09-08T07:36:28.753Z,965.55
2017-09-08T07:37:28.647Z,965.57
2017-09-08T07:38:28.642Z,965.6
2017-09-08T07:39:28.636Z,965.6
2017-09-08T07:40:28.628Z,965.58
2017-09-08T07:41:28.624Z,965.57
2017-09-08T07:42:28.619Z,965.55
2017-09-08T07:43:28.613Z,965.46
2017-09-08T07:44:28.606Z,965.5
2017-09-08T07:45:28.601Z,965.48
2017-09-08T07:46:28.596Z,965.48
2017-09-08T07:47:28.591Z,965.47
2017-09-08T07:48:28.583Z,965.52
2017-09-08T07:49:28.578Z,965.53
2017-09-08T07:50:28.574Z,965.51
2017-09-08T07:51:28.568Z,965.52
2017-09-08T07:52:28.563Z,965.52
2017-09-08T07:53:28.557Z,965.53
2017-09-08T07:54:28.550Z,965.54
2017-09-08T07:55:28.545Z,965.53
2017-09-08T07:56:28.539Z,965.48
2017-09-08T07:57:28.533Z,965.54
2017-09-08T07:58:28.529Z,965.51
2017-09-08T07:59:28.523Z,965.51
2017-09-08T08:00:28.518Z,965.51
2017-09-08T08:01:28.512Z,965.51
2017-09-08T08:02:28.504Z,965.52
2017-09-08T08:03:28.500Z,965.53
2017-09-08T08:04:28.495Z,965.49
2017-09-08T08:05:28.489Z,965.47
2017-09-08T08:06:28.483Z,965.44
2017-09-08T08:07:28.479Z,965.46
2017-09-08T08:08:28.472Z,965.44
2017-09-08T08:09:28.467Z,965.47
2017-09-08T08:10:28.461Z,965.44
2017-09-08T08:11:28.454Z,965.5
2017-09-08T08:12:28.451Z,965.46
2017-09-08T08:13:28.444Z,965.47
2017-09-08T08:14:28.438Z,965.43
2017-09-08T08:15:28.432Z,965.4
2017-09-08T08:16:28.428Z,965.39
2017-09-08T08:17:28.422Z,965.41
2017-09-08T08:18:28.415Z,965.39
2017-09-08T08:19:28.411Z,965.4
2017-09-08T08:20:28.406Z,965.45
2017-09-08T08:21:28.401Z,965.43
2017-09-08T08:22:28.395Z,965.42
2017-09-08T08:23:28.390Z,965.43
2017-09-08T08:24:28.384Z,965.43
2017-09-08T08:25:28.380Z,965.39
2017-09-08T08:26:28.376Z,965.39
2017-09-08T08:27:28.368Z,965.38
2017-09-08T08:28:28.363Z,965.4
2017-09-08T08:29:28.357Z,965.38
2017-09-08T08:30:28.452Z,965.36
2017-09-08T08:31:28.344Z,965.42
2017-09-08T08:32:28.441Z,965.38
2017-09-08T08:33:28.334Z,965.37
2017-09-08T08:34:28.329Z,965.37
2017-09-08T08:35:28.323Z,965.34
2017-09-08T08:36:28.319Z,965.33
2017-09-08T08:37:28.313Z,965.31
2017-09-08T08:38:28.306Z,965.33
2017-09-08T08:39:28.302Z,965.32
2017-09-08T08:40:28.296Z,965.33
2017-09-08T08:41:28.292Z,965.31
2017-09-08T08:42:28.288Z,965.28
2017-09-08T08:43:28.278Z,965.27
2017-09-08T08:44:28.273Z,965.26
2017-09-08T08:45:28.270Z,965.24
2017-09-08T08:46:28.263Z,965.22
2017-09-08T08:47:28.258Z,965.2
2017-09-08T08:48:28.253Z,965.18
2017-09-08T08:49:28.246Z,965.15
2017-09-08T08:50:28.240Z,965.18
2017-09-08T08:51:28.236Z,965.17
2017-09-08T08:52:28.231Z,965.13
2017-09-08T08:53:28.225Z,965.13
2017-09-08T08:54:28.221Z,965.09
2017-09-08T08:55:28.215Z,965.05
2017-09-08T08:56:28.211Z,965.07
2017-09-08T08:57:28.204Z,965.04
2017-09-08T08:58:28.198Z,965.06
2017-09-08T08:59:28.193Z,965.07
2017-09-08T09:00:28.188Z,965.04
2017-09-08T09:01:28.180Z,965.07
2017-09-08T09:02:28.177Z,965.03
2017-09-08T09:03:28.171Z,965.02
2017-09-08T09:04:28.165Z,965
2017-09-08T09:05:28.160Z,964.98
2017-09-08T09:06:28.156Z,965.01
2017-09-08T09:07:28.150Z,964.97
2017-09-08T09:08:28.143Z,965
2017-09-08T09:09:28.139Z,965
2017-09-08T09:10:28.134Z,964.96
2017-09-08T09:11:28.128Z,964.93
2017-09-08T09:12:28.123Z,964.95
2017-09-08T09:13:28.119Z,964.94
2017-09-08T09:14:28.113Z,964.92
2017-09-08T09:15:28.108Z,964.9
2017-09-08T09:16:28.102Z,964.89
2017-09-08T09:17:28.098Z,964.84
2017-09-08T09:18:28.092Z,964.85
2017-09-08T09:19:28.086Z,964.87
2017-09-08T09:20:28.080Z,964.82
2017-09-08T09:21:28.076Z,964.85
2017-09-08T09:22:28.070Z,964.82
2017-09-08T09:23:28.065Z,964.81
2017-09-08T09:24:28.059Z,964.79
2017-09-08T09:25:28.055Z,964.8
2017-09-08T09:26:28.047Z,964.76
2017-09-08T09:27:28.043Z,964.71
2017-09-08T09:28:28.037Z,964.73
2017-09-08T09:29:28.036Z,964.71
2017-09-08T09:30:28.025Z,964.68
2017-09-08T09:31:28.021Z,964.7
2017-09-08T09:32:28.017Z,964.62
2017-09-08T09:33:28.012Z,964.63
2017-09-08T09:34:28.005Z,964.63
2017-09-08T09:35:28.006Z,964.63
2017-09-08T09:36:27.996Z,964.61
2017-09-08T09:37:27.988Z,964.59
2017-09-08T09:38:27.984Z,964.54
2017-09-08T09:39:27.980Z,964.53
2017-09-08T09:40:27.976Z,964.52
2017-09-08T09:41:27.968Z,964.49
2017-09-08T09:42:27.963Z,964.43
2017-09-08T09:43:27.957Z,964.47
2017-09-08T09:44:27.953Z,964.41
2017-09-08T09:45:27.946Z,964.38
2017-09-08T09:46:27.942Z,964.34
2017-09-08T09:47:27.938Z,964.33
2017-09-08T09:48:27.931Z,964.34
2017-09-08T09:49:27.925Z,964.35
2017-09-08T09:50:28.021Z,964.31
2017-09-08T09:51:28.017Z,964.26
2017-09-08T09:52:27.909Z,964.32
2017-09-08T09:53:27.903Z,964.29
2017-09-08T09:54:27.898Z,964.23
2017-09-08T09:55:27.894Z,964.18
2017-09-08T09:56:27.889Z,964.17
2017-09-08T09:57:27.886Z,964.15
2017-09-08T09:58:27.878Z,964.15
2017-09-08T09:59:27.873Z,964.09
2017-09-08T10:00:27.868Z,964.11
2017-09-08T10:01:27.962Z,964.08
2017-09-08T10:02:27.857Z,964.05
2017-09-08T10:03:27.852Z,964.05
2017-09-08T10:04:27.847Z,964.1
2017-09-08T10:05:27.841Z,964
2017-09-08T10:06:27.835Z,964.01
2017-09-08T10:07:27.829Z,963.96
2017-09-08T10:08:27.824Z,963.98
2017-09-08T10:09:27.920Z,963.93
2017-09-08T10:10:27.814Z,963.94
2017-09-08T10:11:27.810Z,963.9
2017-09-08T10:12:27.903Z,963.9
2017-09-08T10:13:27.799Z,963.86
2017-09-08T10:14:27.791Z,963.9
2017-09-08T10:15:27.787Z,963.87
2017-09-08T10:16:27.782Z,963.87
2017-09-08T10:17:27.776Z,963.84
2017-09-08T10:18:27.813Z,963.81
2017-09-08T10:19:27.766Z,963.79
2017-09-08T10:20:27.760Z,963.76
2017-09-08T10:21:27.754Z,963.8
2017-09-08T10:22:27.754Z,963.78
2017-09-08T10:23:27.746Z,963.77
2017-09-08T10:24:27.740Z,963.75
2017-09-08T10:25:27.733Z,963.69
2017-09-08T10:26:27.728Z,963.74
2017-09-08T10:27:27.723Z,963.71
2017-09-08T10:28:27.717Z,963.72
2017-09-08T10:29:27.711Z,963.72
2017-09-08T10:30:27.709Z,963.69
2017-09-08T10:31:27.701Z,963.67
2017-09-08T10:32:27.696Z,963.64
2017-09-08T10:33:27.691Z,963.72
2017-09-08T10:34:27.687Z,963.68
2017-09-08T10:35:27.681Z,963.64
2017-09-08T10:36:27.674Z,963.64
2017-09-08T10:37:27.669Z,963.68
2017-09-08T10:38:27.664Z,963.65
2017-09-08T10:39:27.658Z,963.62
2017-09-08T10:40:27.653Z,963.61
2017-09-08T10:41:27.648Z,963.61
2017-09-08T10:42:27.644Z,963.56
2017-09-08T10:43:27.638Z,963.6
2017-09-08T10:44:27.633Z,963.56
2017-09-08T10:45:27.627Z,963.56
2017-09-08T10:46:27.621Z,963.54
2017-09-08T10:47:27.615Z,963.54
2017-09-08T10:48:27.614Z,963.56
2017-09-08T10:49:27.604Z,963.52
2017-09-08T10:50:27.599Z,963.53
2017-09-08T10:51:27.593Z,963.47
2017-09-08T10:52:27.589Z,963.45
2017-09-08T10:53:27.684Z,963.43
2017-09-08T10:54:27.578Z,963.44
2017-09-08T10:55:27.573Z,963.43
2017-09-08T10:56:27.567Z,963.44
2017-09-08T10:57:27.662Z,963.4
2017-09-08T10:58:27.557Z,963.42
2017-09-08T10:59:27.551Z,963.41
2017-09-08T11:00:27.547Z,963.41
2017-09-08T11:01:27.540Z,963.38
2017-09-08T11:02:27.535Z,963.37
2017-09-08T11:03:27.630Z,963.35
2017-09-08T11:04:27.524Z,963.37
2017-09-08T11:05:27.619Z,963.35
2017-09-08T11:06:27.513Z,963.34
2017-09-08T11:07:27.509Z,963.33
2017-09-08T11:08:27.504Z,963.36
2017-09-08T11:09:27.498Z,963.39
2017-09-08T11:10:27.493Z,963.3
2017-09-08T11:11:27.488Z,963.3
2017-09-08T11:12:27.481Z,963.27
2017-09-08T11:13:27.477Z,963.26
2017-09-08T11:14:27.471Z,963.23
2017-09-08T11:15:27.466Z,963.27
2017-09-08T11:16:27.461Z,963.27
2017-09-08T11:17:27.455Z,963.26
2017-09-08T11:18:27.449Z,963.26
2017-09-08T11:19:27.445Z,963.28
2017-09-08T11:20:27.439Z,963.26
2017-09-08T11:21:27.435Z,963.26
2017-09-08T11:22:27.430Z,963.25
2017-09-08T11:23:27.423Z,963.26
2017-09-08T11:24:27.418Z,963.31
2017-09-08T11:25:27.413Z,963.26
2017-09-08T11:26:27.407Z,963.25
2017-09-08T11:27:27.402Z,963.2
2017-09-08T11:28:27.396Z,963.21
2017-09-08T11:29:27.392Z,963.22
2017-09-08T11:30:27.487Z,963.22
2017-09-08T11:31:27.383Z,963.18
2017-09-08T11:32:27.377Z,963.17
2017-09-08T11:33:27.372Z,963.17
2017-09-08T11:34:27.365Z,963.19
2017-09-08T11:35:27.365Z,963.12
2017-09-08T11:36:27.356Z,963.13
2017-09-08T11:37:27.350Z,963.1
2017-09-08T11:38:27.345Z,963.12
2017-09-08T11:39:27.342Z,963.13
2017-09-08T11:40:27.435Z,963.13
2017-09-08T11:41:27.329Z,963.14
2017-09-08T11:42:27.325Z,963.13
2017-09-08T11:43:27.321Z,963.14
2017-09-08T11:44:27.313Z,963.11
2017-09-08T11:45:27.308Z,963.13
2017-09-08T11:46:27.303Z,963.12
2017-09-08T11:47:27.298Z,963.1
2017-09-08T11:48:27.293Z,963.1
2017-09-08T11:49:27.286Z,963.05
2017-09-08T11:50:27.282Z,963.08
2017-09-08T11:51:27.280Z,963.04
2017-09-08T11:52:27.271Z,963
2017-09-08T11:53:27.266Z,962.99
2017-09-08T11:54:27.261Z,963
2017-09-08T11:55:27.256Z,962.98
2017-09-08T11:56:27.252Z,962.96
2017-09-08T11:57:27.246Z,962.97
2017-09-08T11:58:27.241Z,962.94
2017-09-08T11:59:27.236Z,962.95
2017-09-08T12:00:27.230Z,962.93
2017-09-08T12:01:27.225Z,962.9
2017-09-08T12:02:27.220Z,962.88
2017-09-08T12:03:27.213Z,962.88
2017-09-08T12:04:27.209Z,962.84
2017-09-08T12:05:27.204Z,962.85
2017-09-08T12:06:27.198Z,962.86
2017-09-08T12:07:27.192Z,962.82
2017-09-08T12:08:27.190Z,962.78
2017-09-08T12:09:27.185Z,962.79
2017-09-08T12:10:27.178Z,962.77
2017-09-08T12:11:27.174Z,962.76
2017-09-08T12:12:27.167Z,962.72
2017-09-08T12:13:27.164Z,962.75
2017-09-08T12:14:27.158Z,962.77
2017-09-08T12:15:27.153Z,962.76
2017-09-08T12:16:27.146Z,962.8
2017-09-08T12:17:27.144Z,962.71
2017-09-08T12:18:27.137Z,962.66
2017-09-08T12:19:27.132Z,962.65
2017-09-08T12:20:27.126Z,962.65
2017-09-08T12:21:27.122Z,962.63
2017-09-08T12:22:27.119Z,962.67
2017-09-08T12:23:27.212Z,962.61
2017-09-08T12:24:27.108Z,962.57
2017-09-08T12:25:27.101Z,962.57
2017-09-08T12:26:27.097Z,962.52
2017-09-08T12:27:27.092Z,962.53
2017-09-08T12:28:27.087Z,962.48
2017-09-08T12:29:27.081Z,962.51
2017-09-08T12:30:27.076Z,962.5
2017-09-08T12:31:27.071Z,962.48